Tiempo atmosférico en la estación meteorológica de Taramundi, Ouria, Asturias (335 m.)



Fecha
DESCASC
Temp. máxima en grados centígrados (hora)
DESCASC
Temp. mínima en grados centígrados (hora)
DESCASC
Temp. media en grados centígrados
DESCASC
Racha de viento máxima en m/sg (hora)
DESCASC
Velocidad máxima media en intervalos de 10 minutos(hora)
DESCASC
Precipitaciones diarias en mm
DESCASC
Precipitaciones de 00:00 a 06:00 en mm
DESCASC
Precipitaciones de 06:00 a 12:00 en mm
DESCASC
Precipitaciones de 12:00 a 18:00 en mm
DESCASC
Precipitaciones de 18:00 a 24:00 en mm
DESCASC
18-04-2019 15.8 (15:40) 7.9 (07:50) 11.9 9.44 (17:50) 6.39 (18:00) 3.4 2.6 0 0.8 0
17-04-2019 20.1 (14:10) 9.5 (00:30) 14.8 15.28 (14:00) 7.78 (14:00) 11.4 0 0 0 11.4
16-04-2019 17 (17:20) 5.7 (00:00) 11.3 7.5 (16:50) 5 (18:20) 0 0 0 0 0
15-04-2019 16.9 (12:20) 8.5 (00:00) 12.7 16.67 (11:00) 10.28 (12:50) 12.2 0 9.8 2.2 0.2
14-04-2019 21.5 (18:10) 14.5 (00:00) 18 10 (05:40) 6.11 (11:50) 0 0 0 0 0
13-04-2019 20.8 (14:40) 8.1 (00:00) 14.4 7.78 (13:30) 5 (16:10) 0 0 0 0 0
12-04-2019 15.4 (15:30) 4.4 (00:00) 9.9 5.28 (16:20) 4.44 (19:00) 0 0 0 0 0
11-04-2019 12.2 (18:20) 5.2 (00:00) 8.7 7.78 (18:20) 6.11 (18:30) 0 0 0 0 0
10-04-2019 11.9 (17:00) 7 (00:00) 9.4 11.94 (01:10) 6.94 (02:00) 14.4 8.2 4.4 1.2 0.6
09-04-2019 12.6 (15:10) 6.9 (00:00) 9.8 16.94 (00:40) 9.72 (14:10) 5.6 1.4 0.2 2.4 1.6
08-04-2019 14.2 (15:20) 7.6 (00:00) 10.9 17.22 (16:50) 9.72 (23:00) 7.8 2.4 0.2 5 0.2
07-04-2019 12.8 (14:50) 4.8 (00:00) 8.8 16.67 (21:00) 10.28 (20:30) 4.4 0.2 0 0.8 3.4
06-04-2019 9.4 (15:40) 4.9 (00:00) 7.1 15.83 (05:00) 10 (07:30) 5.2 0.6 0 2.2 2.4
05-04-2019 10.2 (14:20) 4.1 (00:00) 7.1 17.5 (12:40) 10.56 (12:40) 1 0.8 0 0.2 0
04-04-2019 9.2 (15:30) 2.9 (00:00) 6 22.78 (16:40) 12.78 (14:50) 1 0.4 0.2 0 0.4
03-04-2019 8.4 (14:50) 2.9 (00:00) 5.6 10.83 (15:10) 7.5 (15:10) 12.2 1 2.4 3.4 5.4
02-04-2019 11.5 (13:00) 7 (00:00) 9.3 6.67 (17:10) 4.44 (15:40) 0.2 0 0 0 0.2
01-04-2019 14.7 (15:20) 5.6 (00:00) 10.1 8.61 (17:20) 6.94 (17:20) 0 0 0 0 0
31-03-2019 14.5 (13:50) 5.6 (00:00) 10 8.06 (16:30) 6.39 (16:20) 0 0 0 0 0
30-03-2019 16.5 (12:40) 7.1 (00:00) 11.8 6.39 (14:10) 5.28 (15:00) 0 0 0 0 0
29-03-2019 13.6 (13:30) 5.3 (00:00) 9.5 5.83 (15:20) 4.44 (15:20) 0 0 0 0 0
28-03-2019 14.5 (14:40) 2.8 (00:00) 8.6 10.83 (14:00) 7.5 (14:00) 0 0 0 0 0
27-03-2019 14.6 (13:10) 2.6 (00:00) 8.6 11.67 (14:20) 9.17 (14:20) 0 0 0 0 0
26-03-2019 13.6 (13:40) 4 (00:00) 8.8 13.89 (12:10) 9.72 (15:20) 0 0 0 0 0
25-03-2019 13.6 (14:00) 6.2 (00:00) 9.9 15.56 (15:10) 10.83 (15:00) 0 0 0 0 0
24-03-2019 14 (14:20) 6.8 (00:00) 10.4 11.39 (17:20) 8.89 (18:00) 0 0 0 0 0
23-03-2019 17.7 (16:20) 5.7 (00:00) 11.7 5.56 (17:00) 4.72 (17:00) 0 0 0 0 0
22-03-2019 18.9 (14:20) 4.6 (00:00) 11.7 8.61 (13:50) 6.39 (15:10) 0 0 0 0 0
21-03-2019 13.2 (13:50) 1.9 (00:00) 7.5 10.56 (15:20) 8.06 (14:50) 0 0 0 0 0

Gráficas

Temp. máximas Temp. mínimas Temp. medias Precipitaciones Rachas de viento máximas Velocidades máximas media en intervalos de 10 minutos

Datos horarios

Fecha y hora oficial Temperatura (ºC) Velocidad del viento (km/h) Dirección del viento Racha (km/h) Dirección de racha Precipitación (mm) Presión (hPa) Tendencia (hPa) Humedad (%)
2019-04-19 23:00:00 11 7 Norte 15 Noroeste 0 -- -- 100
2019-04-19 22:00:00 10.9 10 Norte 15 Norte 0 -- -- 100
2019-04-19 21:00:00 12.1 13 Norte 23 Norte 0 -- -- 100
2019-04-19 20:00:00 12.5 15 Norte 23 Norte 0 -- -- 99
2019-04-19 19:00:00 14 15 Norte 26 Norte 0 -- -- 92
2019-04-19 18:00:00 14.3 16 Norte 26 Norte 0 -- -- 93
2019-04-19 17:00:00 13 19 Norte 28 Norte 0 -- -- 98
2019-04-19 16:00:00 13.6 22 Norte 32 Norte 0 -- -- 95
2019-04-19 15:00:00 15.2 24 Norte 32 Norte 0 -- -- 91
2019-04-19 14:00:00 14.3 15 Norte 28 Norte 0 -- -- 100
2019-04-19 13:00:00 12.9 13 Norte 26 Norte 0 -- -- 100
2019-04-19 12:00:00 11.3 22 Norte 30 Norte 0 -- -- 100
2019-04-19 11:00:00 11.4 14 Norte 19 Norte 0 -- -- 100
2019-04-19 10:00:00 10.7 13 Norte 25 Noroeste 0.2 -- -- 100
2019-04-19 09:00:00 10.6 14 Norte 31 Norte 0.4 -- -- 100
2019-04-19 08:00:00 10.5 22 Norte 36 Norte 2.2 -- -- 100
2019-04-19 07:00:00 10.4 23 Norte 36 Norte 0.6 -- -- 100
2019-04-19 06:00:00 10.3 22 Norte 31 Norte 0.6 -- -- 100
2019-04-19 05:00:00 10.4 19 Norte 31 Norte 0.8 -- -- 100
2019-04-19 04:00:00 10.4 19 Norte 26 Norte 0.2 -- -- 100
2019-04-19 03:00:00 10.3 21 Norte 30 Norte 0.4 -- -- 100
2019-04-19 02:00:00 10.1 20 Norte 28 Norte 0.2 -- -- 100
2019-04-19 01:00:00 10 16 Norte 26 Norte 0.2 -- -- 100
2019-04-19 00:00:00 10.3 11 Norte 17 Norte 0 -- -- 100
2019-04-18 23:00:00 10.3 14 Norte 26 Norte 0 -- -- 99
2019-04-18 22:00:00 10.7 11 Norte 14 Norte 0 -- -- 99
2019-04-18 21:00:00 11.4 9 Norte 21 Norte 0 -- -- 95
2019-04-18 20:00:00 12.2 15 Norte 27 Norte 0 -- -- 89
2019-04-18 19:00:00 13.1 16 Norte 30 Norte 0 -- -- 87
2019-04-18 18:00:00 13.8 23 Norte 34 Norte 0 -- -- 80
2019-04-18 17:00:00 14.6 23 Norte 32 Norte 0 -- -- 74
2019-04-18 16:00:00 15 21 Norte 33 Norte 0 -- -- 72
2019-04-18 15:00:00 14.7 18 Norte 24 Norte 0.6 -- -- 77
2019-04-18 14:00:00 13.5 12 Norte 18 Norte 0.2 -- -- 88
2019-04-18 13:00:00 14 11 Norte 20 Norte 0 -- -- 78
2019-04-18 12:00:00 14.6 12 Norte 14 Norte 0 -- -- 84
2019-04-18 11:00:00 11.6 5 Norte 8 Norte 0 -- -- 92
2019-04-18 10:00:00 10.8 5 Norte 9 Norte 0 -- -- 95
2019-04-18 09:00:00 8.2 3 Sur 6 Sur 0 -- -- 98
2019-04-18 08:00:00 7.9 0 Calma 8 Sudeste 0 -- -- 100
2019-04-18 07:00:00 8.1 0 Calma 5 Sur 0 -- -- 100
2019-04-18 06:00:00 8.3 0 Calma 3 Sur 0 -- -- 100
2019-04-18 05:00:00 9.4 0 Calma 11 Sur 0.2 -- -- 100
2019-04-18 04:00:00 9.8 3 Sudoeste 12 Sur 0.2 -- -- 100
2019-04-18 03:00:00 10 5 Sur 13 Sur 0.2 -- -- 100
2019-04-18 02:00:00 10 5 Sur 9 Sur 0.8 -- -- 100
2019-04-18 01:00:00 10 2 Norte 7 Norte 1.2 -- -- 100
2019-04-18 00:00:00 10.1 2 Sudoeste 8 Sudoeste 3.6 -- -- 100
2019-04-17 23:00:00 10.2 6 Sur 17 Norte 1 -- -- 100
2019-04-17 22:00:00 10.7 6 Norte 13 Noroeste 4.8 -- -- 94
2019-04-17 21:00:00 10.8 6 Sudeste 12 Sur 1.8 -- -- 97
2019-04-17 20:00:00 11.7 6 Sur 9 Sur 0.2 -- -- 93
2019-04-17 19:00:00 12.5 4 Norte 16 Norte 0 -- -- 86
2019-04-17 18:00:00 13.5 6 Norte 16 Norte 0 -- -- 83
2019-04-17 17:00:00 13.5 11 Norte 25 Norte 0 -- -- 83
2019-04-17 16:00:00 14.3 16 Norte 43 Sur 0 -- -- 80
2019-04-17 15:00:00 19.8 23 Sur 49 Sur 0 -- -- 44
2019-04-17 14:00:00 19.9 28 Sur 55 Sur 0 -- -- 46
2019-04-17 13:00:00 19.8 23 Sur 47 Sur 0 -- -- 48
2019-04-17 12:00:00 18.1 15 Sur 24 Sudoeste 0 -- -- 56
2019-04-17 11:00:00 16.1 5 Sur 11 Sur 0 -- -- 69
2019-04-17 10:00:00 14.9 3 Sur 7 Sur 0 -- -- 72
2019-04-17 09:00:00 13.3 0 Calma 6 Sudeste 0 -- -- 65
2019-04-17 08:00:00 13 4 Sur 9 Sur 0 -- -- 64
2019-04-17 07:00:00 12.2 5 Sur 10 Sur 0 -- -- 68
2019-04-17 06:00:00 12 8 Sur 10 Sudoeste 0 -- -- 70
2019-04-17 05:00:00 11 6 Sur 9 Sur 0 -- -- 75
2019-04-17 04:00:00 9.9 6 Sur 10 Sur 0 -- -- 87
2019-04-17 03:00:00 10.2 3 Norte 8 Sur 0 -- -- 86
2019-04-17 02:00:00 9.7 6 Sur 6 Sur 0 -- -- 91
2019-04-17 01:00:00 10 2 Noroeste 14 Sur 0 -- -- 92
2019-04-17 00:00:00 10 0 Calma 9 Sur 0 -- -- 91
2019-04-16 23:00:00 10.1 8 Sur 9 Sur 0 -- -- 91
2019-04-16 22:00:00 11 7 Sur 10 Sur 0 -- -- 88
2019-04-16 21:00:00 13 2 Sur 10 Norte 0 -- -- 79
2019-04-16 20:00:00 14.6 10 Norte 20 Norte 0 -- -- 67
2019-04-16 19:00:00 15.5 15 Norte 25 Norte 0 -- -- 68
2019-04-16 18:00:00 16.8 16 Norte 26 Norte 0 -- -- 66
2019-04-16 17:00:00 16.8 17 Norte 27 Norte 0 -- -- 65
2019-04-16 16:00:00 16.6 17 Norte 25 Norte 0 -- -- 68
2019-04-16 15:00:00 15.9 14 Norte 22 Norte 0 -- -- 72
2019-04-16 14:00:00 15.4 17 Norte 22 Norte 0 -- -- 69
2019-04-16 13:00:00 14.7 12 Norte 19 Norte 0 -- -- 68
2019-04-16 12:00:00 13.9 10 Norte 13 Norte 0 -- -- 73
2019-04-16 11:00:00 12.2 4 Sur 9 Sur 0 -- -- 73
2019-04-16 10:00:00 10.5 4 Sur 7 Sur 0 -- -- 77
2019-04-16 09:00:00 7 3 Sur 6 Sur 0 -- -- 90
2019-04-16 08:00:00 6 0 Calma 10 Sudoeste 0 -- -- 95
2019-04-16 07:00:00 5.8 3 Sudoeste 12 Sur 0 -- -- 97
2019-04-16 06:00:00 5.9 3 Sudoeste 8 Sur 0 -- -- 97
2019-04-16 05:00:00 6.1 0 Calma 7 Sur 0 -- -- 98
2019-04-16 04:00:00 6.2 3 Sudoeste 9 Sur 0 -- -- 99
2019-04-16 03:00:00 6.4 5 Sur 12 Sur 0 -- -- 98
2019-04-16 02:00:00 7.2 6 Sur 14 Sur 0 -- -- 98
2019-04-16 01:00:00 7.8 7 Sur 13 Sur 0 -- -- 97
2019-04-16 00:00:00 8.5 2 Sudoeste 6 Sur 0 -- -- 94
2019-04-15 23:00:00 9.1 2 Sur 5 Sur 0 -- -- 91
2019-04-15 22:00:00 9.3 3 Sur 8 Sur 0 -- -- 89
2019-04-15 21:00:00 11.1 5 Sur 14 Sudoeste 0 -- -- 84
2019-04-15 20:00:00 12.3 9 Sur 21 Sudeste 0 -- -- 81
2019-04-15 19:00:00 11.9 10 Sur 36 Sur 0.2 -- -- 91
2019-04-15 18:00:00 12.3 8 Sur 37 Sur 0.2 -- -- 88
2019-04-15 17:00:00 12.6 24 Sur 46 Sur 1 -- -- 88
2019-04-15 16:00:00 12.5 23 Sur 49 Sur 0 -- -- 87
2019-04-15 15:00:00 12.7 32 Sur 56 Sur 0 -- -- 84
2019-04-15 14:00:00 13.6 30 Sur 55 Sur 0.2 -- -- 86
2019-04-15 13:00:00 11.9 28 Sur 55 Sur 0.8 -- -- 96
2019-04-15 12:00:00 16.6 30 Sur 54 Sur 0 -- -- 73
2019-04-15 11:00:00 16.1 37 Sur 60 Sur 0 -- -- 80
2019-04-15 10:00:00 13.7 13 Sur 27 Sur 8 -- -- 100
2019-04-15 09:00:00 14 8 Sur 16 Sur 1.8 -- -- 96
2019-04-15 08:00:00 15.3 2 Nordeste 8 Sur 0 -- -- 84
2019-04-15 07:00:00 15.3 0 Calma 5 Norte 0 -- -- 82
2019-04-15 06:00:00 14.6 0 Calma 13 Sur 0 -- -- 86
2019-04-15 05:00:00 14.8 0 Calma 5 Sur 0 -- -- 86
2019-04-15 04:00:00 14.6 0 Calma 5 Sur 0 -- -- 88
2019-04-15 03:00:00 15.3 0 Calma 3 Sudoeste 0 -- -- 87
2019-04-15 02:00:00 15.4 0 Calma 5 Sur 0 -- -- 87
2019-04-15 01:00:00 15 5 Sur 7 Sur 0 -- -- 89
2019-04-15 00:00:00 15.5 0 Calma 8 Sur 0 -- -- 88
2019-04-14 23:00:00 15.2 7 Sur 8 Sur 0 -- -- 90
2019-04-14 22:00:00 15.7 5 Sur 6 Sur 0 -- -- 87
2019-04-14 21:00:00 17.1 0 Calma 5 Norte 0 -- -- 82
2019-04-14 20:00:00 18.1 4 Norte 14 Norte 0 -- -- 81
2019-04-14 19:00:00 18.8 13 Norte 19 Norte 0 -- -- 77
2019-04-14 18:00:00 21.4 8 Sur 24 Sur 0 -- -- 62
2019-04-14 17:00:00 20.7 17 Sur 28 Sur 0 -- -- 61
2019-04-14 16:00:00 20.7 10 Sur 28 Sur 0 -- -- 63
2019-04-14 15:00:00 20.3 12 Sur 25 Sur 0 -- -- 67
2019-04-14 14:00:00 19.9 14 Sur 28 Sur 0 -- -- 70
2019-04-14 13:00:00 19 16 Sur 33 Sur 0 -- -- 72
2019-04-14 12:00:00 19 18 Sur 35 Sur 0 -- -- 72
2019-04-14 11:00:00 17.6 18 Sur 29 Sur 0 -- -- 76
2019-04-14 10:00:00 16.6 19 Sur 32 Sur 0 -- -- 80
2019-04-14 09:00:00 15.6 15 Sur 31 Sur 0 -- -- 84
2019-04-14 08:00:00 15.4 19 Sur 30 Sur 0 -- -- 85
2019-04-14 07:00:00 15.5 16 Sur 31 Sur 0 -- -- 84
2019-04-14 06:00:00 15.5 14 Sur 36 Sudoeste 0 -- -- 83
2019-04-14 05:00:00 15.3 15 Sur 29 Sur 0 -- -- 83
2019-04-14 04:00:00 15.3 21 Sur 35 Sudoeste 0 -- -- 83
2019-04-14 03:00:00 15.2 14 Sur 30 Sur 0 -- -- 83
2019-04-14 02:00:00 15.1 21 Sur 33 Sur 0 -- -- 83
2019-04-14 01:00:00 15 13 Sur 27 Sur 0 -- -- 84
2019-04-14 00:00:00 14.5 10 Sur 19 Sur 0 -- -- 85
2019-04-13 23:00:00 13.8 3 Sudoeste 16 Sur 0 -- -- 84
2019-04-13 22:00:00 13.3 4 Sudoeste 6 Sur 0 -- -- 76
2019-04-13 21:00:00 13.9 0 Calma 5 Este 0 -- -- 67
2019-04-13 20:00:00 14.6 0 Calma 14 Norte 0 -- -- 64
2019-04-13 19:00:00 15.3 9 Norte 18 Norte 0 -- -- 68
2019-04-13 18:00:00 16.1 17 Norte 23 Norte 0 -- -- 67
2019-04-13 17:00:00 17.6 15 Norte 22 Norte 0 -- -- 68
2019-04-13 16:00:00 17.3 17 Norte 23 Norte 0 -- -- 65
2019-04-13 15:00:00 19.8 12 Norte 26 Sur 0 -- -- 57
2019-04-13 14:00:00 19.6 14 Sur 28 Sur 0 -- -- 47
2019-04-13 13:00:00 19.2 10 Sur 25 Sur 0 -- -- 48
2019-04-13 12:00:00 17.2 8 Sur 14 Sudeste 0 -- -- 64
2019-04-13 11:00:00 14.7 8 Sur 10 Sur 0 -- -- 75
2019-04-13 10:00:00 11.6 3 Sur 9 Sur 0 -- -- 83
2019-04-13 09:00:00 10.4 8 Sur 14 Sur 0 -- -- 82
2019-04-13 08:00:00 9.3 8 Sur 12 Sur 0 -- -- 86
2019-04-13 07:00:00 9.5 5 Sur 13 Sudoeste 0 -- -- 85
2019-04-13 06:00:00 9.4 9 Sur 16 Sur 0 -- -- 84
2019-04-13 05:00:00 9.6 9 Sur 14 Sur 0 -- -- 83
2019-04-13 04:00:00 9.3 8 Sur 15 Sur 0 -- -- 84
2019-04-13 03:00:00 8.5 5 Sudoeste 11 Sur 0 -- -- 85
2019-04-13 02:00:00 8.2 7 Sur 11 Sur 0 -- -- 87
2019-04-13 01:00:00 8.7 5 Sur 8 Sur 0 -- -- 86
2019-04-13 00:00:00 9.1 5 Sur 7 Sur 0 -- -- 87
2019-04-12 23:00:00 9.1 3 Sur 4 Sur 0 -- -- 89
2019-04-12 22:00:00 9.2 3 Sur 4 Sudoeste 0 -- -- 85
2019-04-12 21:00:00 10.2 0 Calma 13 Norte 0 -- -- 79
2019-04-12 20:00:00 11.9 12 Norte 19 Norte 0 -- -- 76
2019-04-12 19:00:00 14.1 16 Norte 19 Norte 0 -- -- 76
2019-04-12 18:00:00 15.2 13 Norte 18 Norte 0 -- -- 76
2019-04-12 17:00:00 15.1 13 Norte 19 Norte 0 -- -- 76
2019-04-12 16:00:00 15.1 15 Norte 19 Norte 0 -- -- 76
2019-04-12 15:00:00 15.2 11 Norte 18 Norte 0 -- -- 76
2019-04-12 14:00:00 14.9 8 Norte 18 Norte 0 -- -- 72
2019-04-12 13:00:00 13.8 6 Norte 12 Norte 0 -- -- 81
2019-04-12 12:00:00 12 2 Sudeste 10 Sudeste 0 -- -- 76
2019-04-12 11:00:00 8.2 7 Sur 18 Sur 0 -- -- 97
2019-04-12 10:00:00 6.4 8 Sur 15 Sur 0 -- -- 100
2019-04-12 09:00:00 5.2 11 Sur 16 Sur 0 -- -- 100
2019-04-12 08:00:00 4.5 7 Sur 11 Sur 0 -- -- 100
2019-04-12 07:00:00 4.6 5 Sudoeste 10 Sur 0 -- -- 100
2019-04-12 06:00:00 4.5 4 Sudoeste 8 Sudoeste 0 -- -- 100
2019-04-12 05:00:00 5.2 4 Sudoeste 9 Norte 0 -- -- 100
2019-04-12 04:00:00 6.8 6 Norte 10 Norte 0 -- -- 100
2019-04-12 03:00:00 5.5 4 Sur 6 Sur 0 -- -- 100
2019-04-12 02:00:00 5.8 0 Calma 4 Este 0 -- -- 100
2019-04-12 01:00:00 6.3 0 Calma 4 Norte 0 -- -- 100
2019-04-12 00:00:00 6.1 0 Calma 3 Norte 0 -- -- 100
2019-04-11 23:00:00 6.6 3 Sur 4 Sur 0 -- -- 100
2019-04-11 22:00:00 7.4 3 Norte 10 Norte 0 -- -- 99
2019-04-11 21:00:00 8.8 9 Norte 19 Norte 0 -- -- 96
2019-04-11 20:00:00 10.1 15 Norte 25 Norte 0 -- -- 92
2019-04-11 19:00:00 11.2 19 Norte 28 Norte 0 -- -- 89
2019-04-11 18:00:00 12.1 19 Norte 26 Norte 0 -- -- 83
2019-04-11 17:00:00 10.3 15 Norte 25 Norte 0 -- -- 88
2019-04-11 16:00:00 10.8 14 Norte 23 Norte 0 -- -- 84
2019-04-11 15:00:00 10.7 13 Norte 27 Norte 0 -- -- 83
2019-04-11 14:00:00 11.5 13 Norte 25 Norte 0 -- -- 82
2019-04-11 13:00:00 11.4 7 Nordeste 14 Norte 0 -- -- 78
2019-04-11 12:00:00 10.7 2 Sudeste 10 Sur -- -- -- 88
2019-04-11 11:00:00 7.5 5 Sur 9 Sur -- -- -- 100
2019-04-11 10:00:00 6.4 6 Sur 8 Sur 0 -- -- 100
2019-04-11 09:00:00 5.6 5 Sur 8 Sur 0 -- -- 100
2019-04-11 08:00:00 5.5 3 Sudoeste 9 Sudoeste 0 -- -- 100
2019-04-11 07:00:00 5.6 4 Sur 8 Sur 0 -- -- 100
2019-04-11 06:00:00 5.3 3 Sur 7 Sur 0 -- -- 100
2019-04-11 05:00:00 5.8 3 Sur 7 Sur 0 -- -- 100
2019-04-11 04:00:00 5.9 4 Sur 6 Sudoeste 0 -- -- 100
2019-04-11 03:00:00 6.2 3 Sur 6 Sur 0 -- -- 100
2019-04-11 02:00:00 7.3 3 Sur 4 Sur 0 -- -- 100
2019-04-11 01:00:00 7.6 0 Calma 3 Sur 0 -- -- 100
2019-04-11 00:00:00 7.8 0 Calma 3 Noroeste 0 -- -- 100
2019-04-10 23:00:00 8.2 3 Norte 9 Norte 0.4 -- -- 100
2019-04-10 22:00:00 8.8 5 Norte 12 Norte 0 -- -- 100
2019-04-10 21:00:00 9.2 8 Norte 22 Norte 0.2 -- -- 100
2019-04-10 20:00:00 9.9 14 Norte 22 Norte 0 -- -- 95
2019-04-10 19:00:00 10.5 19 Norte 26 Norte 0 -- -- 89
2019-04-10 18:00:00 11.2 20 Norte 28 Norte 0 -- -- 86
2019-04-10 17:00:00 11.9 19 Norte 30 Norte 0 -- -- 84
2019-04-10 16:00:00 10.2 21 Norte 35 Norte 0 -- -- 93
2019-04-10 15:00:00 10.9 24 Norte 36 Norte 0 -- -- 88
2019-04-10 14:00:00 9.9 20 Norte 31 Norte 0 -- -- 99
2019-04-10 13:00:00 9.1 21 Norte 35 Nordeste 1.2 -- -- 100
2019-04-10 12:00:00 9.6 17 Norte 39 Norte 0.4 -- -- 100
2019-04-10 11:00:00 8.9 17 Norte 31 Norte 0.6 -- -- 100
2019-04-10 10:00:00 8.3 12 Nordeste 24 Nordeste 2.8 -- -- 100
2019-04-10 09:00:00 8 4 Sur 13 Este 0.2 -- -- 100
2019-04-10 08:00:00 7.9 3 Sudeste 14 Sur 0 -- -- 100
2019-04-10 07:00:00 7.7 6 Sudeste 17 Sudeste 0.4 -- -- 100
2019-04-10 06:00:00 7.3 10 Sudeste 17 Sudeste 1 -- -- 100
2019-04-10 05:00:00 7.2 14 Sudeste 19 Sudeste 3.4 -- -- 100
2019-04-10 04:00:00 7.4 10 Sur 22 Sudeste 3.6 -- -- 98
2019-04-10 03:00:00 8.3 14 Sur 41 Sur 0.2 -- -- 90
2019-04-10 02:00:00 8.5 25 Sur 43 Sur 0 -- -- 89
2019-04-10 01:00:00 8.5 19 Sur 34 Sur 0 -- -- 88
2019-04-10 00:00:00 7.9 13 Sur 24 Sur 0 -- -- 92
2019-04-09 23:00:00 7.8 4 Sudoeste 23 Sur 0 -- -- 93
2019-04-09 22:00:00 8.1 10 Sudoeste 35 Sur 0 -- -- 92
2019-04-09 21:00:00 8.7 24 Sur 41 Sur 0.2 -- -- 90
2019-04-09 20:00:00 8.7 23 Sur 50 Sur 0.4 -- -- 90
2019-04-09 19:00:00 8.9 18 Sur 40 Sur 1 -- -- 96
2019-04-09 18:00:00 9.3 30 Sur 51 Sur 1 -- -- 92
2019-04-09 17:00:00 10.6 23 Sur 58 Sur 1.2 -- -- 81
2019-04-09 16:00:00 12.5 32 Sur 56 Sur 0 -- -- 66
2019-04-09 15:00:00 12.2 33 Sur 51 Sur 0 -- -- 70
2019-04-09 14:00:00 10.4 34 Sur 48 Sur 0.2 -- -- 80
2019-04-09 13:00:00 10.8 30 Sur 54 Sur 0 -- -- 74
2019-04-09 12:00:00 8.8 24 Sur 46 Sur 0 -- -- 85
2019-04-09 11:00:00 8.8 28 Sur 44 Sur 0 -- -- 81
2019-04-09 10:00:00 7.9 21 Sur 32 Sudeste 0 -- -- 83
2019-04-09 09:00:00 7.1 18 Sur 46 Sur 0.2 -- -- 88
2019-04-09 08:00:00 7.9 20 Sur 45 Sur 0 -- -- 84
2019-04-09 07:00:00 8 18 Sur 44 Sur 0 -- -- 83
2019-04-09 06:00:00 8.1 25 Sur 51 Sur 0 -- -- 82
2019-04-09 05:00:00 8.4 28 Sur 48 Sur 0.4 -- -- 83
2019-04-09 04:00:00 8.4 22 Sur 44 Sur 0.2 -- -- 86
2019-04-09 03:00:00 8.4 28 Sur 50 Sur 0.4 -- -- 85
2019-04-09 02:00:00 8.7 28 Sur 45 Sur 0 -- -- 81
2019-04-09 01:00:00 8 27 Sur 61 Sur 0.4 -- -- 84
2019-04-09 00:00:00 9.4 27 Sur 60 Sur 0.2 -- -- 79
2019-04-08 23:00:00 10.3 35 Sur 56 Sur 0 -- -- 70
2019-04-08 22:00:00 9.8 30 Sur 59 Sur 0 -- -- 72
2019-04-08 21:00:00 10.1 30 Sur 58 Sudoeste 0 -- -- 71
2019-04-08 20:00:00 11.5 22 Sur 39 Sur 0 -- -- 70
2019-04-08 19:00:00 10.8 22 Sur 50 Sur 0 -- -- 77
2019-04-08 18:00:00 11.7 23 Sur 38 Sur 0 -- -- 77
2019-04-08 17:00:00 9 28 Sur 62 Sur 3 -- -- 87
2019-04-08 16:00:00 10.5 31 Sur 57 Sur 1.8 -- -- 85
2019-04-08 15:00:00 13.4 26 Sur 40 Sur 0 -- -- 66
2019-04-08 14:00:00 10.8 23 Sur 45 Sur 0.2 -- -- 81
2019-04-08 13:00:00 11.8 25 Sur 45 Sur 0 -- -- 68
2019-04-08 12:00:00 10.8 26 Sur 48 Sur 0 -- -- 71
2019-04-08 11:00:00 10 32 Sur 48 Sur 0 -- -- 77
2019-04-08 10:00:00 8.3 23 Sur 43 Sur 0.2 -- -- 88
2019-04-08 09:00:00 7.9 12 Sur 27 Sur 0 -- -- 89
2019-04-08 08:00:00 8.1 16 Sur 32 Sur 0 -- -- 90
2019-04-08 07:00:00 8.3 13 Sur 26 Sur 0 -- -- 92
2019-04-08 06:00:00 8.5 12 Sur 36 Sur 0 -- -- 92
2019-04-08 05:00:00 9.4 22 Sur 36 Sur 0 -- -- 94
2019-04-08 04:00:00 9.2 11 Sur 26 Sur 0 -- -- 98
2019-04-08 03:00:00 9.8 17 Sur 36 Sur 0.2 -- -- 95
2019-04-08 02:00:00 10.1 15 Sur 49 Sur 0.2 -- -- 96
2019-04-08 01:00:00 9.2 29 Sur 48 Sur 2 -- -- 97
2019-04-08 00:00:00 9.4 22 Sur 46 Sur 1.6 -- -- 96
2019-04-07 23:00:00 10.3 27 Sur 53 Sur 0 -- -- 87
2019-04-07 22:00:00 10.3 33 Sur 52 Sur 0.2 -- -- 84
2019-04-07 21:00:00 9.4 36 Sur 60 Sur 0 -- -- 87
2019-04-07 20:00:00 9.2 25 Sur 59 Sur 0.2 -- -- 86
2019-04-07 19:00:00 8.1 12 Sudoeste 37 Sur 1.4 -- -- 90
2019-04-07 18:00:00 8.6 14 Sur 36 Sur 0.8 -- -- 87
2019-04-07 17:00:00 10.4 24 Sur 46 Sur 0 -- -- 76
2019-04-07 16:00:00 12.3 23 Sur 49 Sur 0 -- -- 61
2019-04-07 15:00:00 12.8 22 Sur 40 Sur 0 -- -- 61
2019-04-07 14:00:00 12.7 20 Sur 35 Sur 0 -- -- 60
2019-04-07 13:00:00 10.8 14 Sur 29 Sur 0 -- -- 70
2019-04-07 12:00:00 9.6 21 Sur 33 Sur 0 -- -- 72
2019-04-07 11:00:00 8.9 19 Sur 30 Sur 0 -- -- 76
2019-04-07 10:00:00 7.3 16 Sur 31 Sur 0 -- -- 84
2019-04-07 09:00:00 5.2 11 Sur 26 Sur 0 -- -- 92
2019-04-07 08:00:00 5.3 11 Sur 19 Sur 0 -- -- 90
2019-04-07 07:00:00 5.5 13 Sur 30 Sur 0 -- -- 89
2019-04-07 06:00:00 5.2 14 Sur 37 Sur 0 -- -- 88
2019-04-07 05:00:00 5.5 22 Sur 38 Sur 0 -- -- 89
2019-04-07 04:00:00 5.5 16 Sur 35 Sur 0 -- -- 89
2019-04-07 03:00:00 5.3 12 Sur 32 Sur 0 -- -- 91
2019-04-07 02:00:00 5.6 13 Sur 25 Sur 0.2 -- -- 92
2019-04-07 01:00:00 5.5 12 Sur 26 Sudeste 0 -- -- 94
2019-04-07 00:00:00 5.7 9 Sur 23 Sudeste 0 -- -- 91
2019-04-06 23:00:00 5.7 13 Sur 24 Sudoeste 0 -- -- 92
2019-04-06 22:00:00 5.5 7 Sur 15 Sur 0 -- -- 95
2019-04-06 21:00:00 5.8 9 Sur 23 Sudeste 0 -- -- 96
2019-04-06 20:00:00 5.9 12 Sur 36 Sur 0.2 -- -- 95
2019-04-06 19:00:00 6.3 9 Sur 25 Sur 2.2 -- -- 98
2019-04-06 18:00:00 6.5 12 Sur 21 Sur 1.2 -- -- 97
2019-04-06 17:00:00 7.3 10 Sur 34 Sur 0.4 -- -- 93
2019-04-06 16:00:00 8.8 10 Nordeste 27 Noroeste 0.2 -- -- 85
2019-04-06 15:00:00 8.2 12 Sur 35 Sur 0 -- -- 86
2019-04-06 14:00:00 7.3 14 Sur 31 Sur 0 -- -- 89
2019-04-06 13:00:00 6.5 18 Sur 39 Sur 0.4 -- -- 92
2019-04-06 12:00:00 7.4 24 Sur 47 Sur 0 -- -- 80
2019-04-06 11:00:00 6.9 25 Sur 53 Sur 0 -- -- 81
2019-04-06 10:00:00 6.3 24 Sur 50 Sur 0 -- -- 82
2019-04-06 09:00:00 5.6 27 Sur 49 Sur 0 -- -- 84
2019-04-06 08:00:00 5.6 32 Sur 55 Sur 0 -- -- 82
2019-04-06 07:00:00 4.9 30 Sur 50 Sur 0 -- -- 85
2019-04-06 06:00:00 5 35 Sur 54 Sur 0 -- -- 86
2019-04-06 05:00:00 5.5 30 Sur 57 Sur 0 -- -- 87
2019-04-06 04:00:00 5.4 34 Sur 55 Sur 0.2 -- -- 88
2019-04-06 03:00:00 5.7 31 Sur 52 Sur 0 -- -- 86
2019-04-06 02:00:00 5.8 24 Sur 50 Sur 0.4 -- -- 91
2019-04-06 01:00:00 7.1 28 Sur 49 Sur 0 -- -- 79
2019-04-06 00:00:00 6.7 24 Sur 41 Sur 0 -- -- 82
2019-04-05 23:00:00 6.5 15 Sur 35 Sur 0 -- -- 83
2019-04-05 22:00:00 6.7 16 Sur 37 Sur 0 -- -- 83
2019-04-05 21:00:00 7.5 23 Sur 34 Sur 0 -- -- 80
2019-04-05 20:00:00 8.1 25 Sur 39 Sur 0 -- -- 76
2019-04-05 19:00:00 9.2 16 Sur 36 Sur 0 -- -- 74
2019-04-05 18:00:00 8.8 9 Sur 43 Sur 0 -- -- 79
2019-04-05 17:00:00 9.5 27 Sur 43 Sudoeste 0.2 -- -- 69
2019-04-05 16:00:00 8.4 22 Sur 51 Sur 0 -- -- 81
2019-04-05 15:00:00 7.8 30 Sur 58 Sudoeste 0 -- -- 79
2019-04-05 14:00:00 9.4 29 Sur 52 Sur 0 -- -- 64
2019-04-05 13:00:00 8.6 35 Sur 63 Sur 0 -- -- 64
2019-04-05 12:00:00 7.5 28 Sur 55 Sur 0 -- -- 70
2019-04-05 11:00:00 7.1 32 Sur 52 Sur 0 -- -- 72
2019-04-05 10:00:00 5.9 30 Sur 59 Sur 0 -- -- 78
2019-04-05 09:00:00 4.6 22 Sur 39 Sur 0 -- -- 82
2019-04-05 08:00:00 4.1 17 Sur 45 Sur 0 -- -- 85
2019-04-05 07:00:00 4.6 27 Sur 57 Sudeste 0 -- -- 84
2019-04-05 06:00:00 4.7 28 Sur 50 Sur 0 -- -- 84
2019-04-05 05:00:00 5 18 Sur 35 Sur 0 -- -- 86
2019-04-05 04:00:00 4.4 11 Sur 22 Sur 0 -- -- 93
2019-04-05 03:00:00 4.4 7 Sur 23 Sur 0 -- -- 95
2019-04-05 02:00:00 4.9 20 Sur 35 Sur 0.2 -- -- 94
2019-04-05 01:00:00 4.9 13 Sudoeste 36 Sur 0.6 -- -- 95
2019-04-05 00:00:00 5.8 18 Sur 42 Sur 0.2 -- -- 93
2019-04-04 23:00:00 6.8 26 Sur 51 Sur 0 -- -- 85
2019-04-04 22:00:00 7 36 Sur 63 Sur 0.2 -- -- 82
2019-04-04 21:00:00 7.3 30 Sur 55 Sur 0 -- -- 82
2019-04-04 20:00:00 7.6 32 Sur 67 Sur 0 -- -- 85
2019-04-04 19:00:00 8.2 41 Sur 73 Sur 0 -- -- 80
2019-04-04 18:00:00 8.3 41 Sur 76 Sur 0 -- -- 79
2019-04-04 17:00:00 8.7 43 Sur 82 Sur 0 -- -- 76
2019-04-04 16:00:00 9 39 Sur 74 Sur 0 -- -- 73
2019-04-04 15:00:00 9 45 Sur 70 Sur 0 -- -- 72
2019-04-04 14:00:00 8.7 36 Sur 71 Sur 0 -- -- 74
2019-04-04 13:00:00 9 33 Sur 65 Sur 0 -- -- 74
2019-04-04 12:00:00 8.1 33 Sur 56 Sur 0.2 -- -- 75
2019-04-04 11:00:00 6.4 27 Sur 48 Sur 0 -- -- 84
2019-04-04 10:00:00 5.2 24 Sur 39 Sur 0 -- -- 90
2019-04-04 09:00:00 4.4 16 Sur 32 Sur 0 -- -- 92
2019-04-04 08:00:00 4.2 14 Sur 30 Sur 0 -- -- 92
2019-04-04 07:00:00 3.9 14 Sur 30 Sur 0 -- -- 93
2019-04-04 06:00:00 3.9 13 Sur 25 Sur 0 -- -- 94
2019-04-04 05:00:00 4 10 Sur 23 Sur 0 -- -- 94
2019-04-04 04:00:00 3.8 14 Sur 23 Sur 0.4 -- -- 97
2019-04-04 03:00:00 3.9 9 Sur 28 Sur 0 -- -- 95
2019-04-04 02:00:00 3.7 13 Sur 23 Sur 0 -- -- 99
2019-04-04 01:00:00 3.2 5 Sur 14 Sur 0 -- -- 100
2019-04-04 00:00:00 3.2 5 Sur 12 Sudeste 0 -- -- 100
2019-04-03 23:00:00 3 5 Sur 14 Sur 0 -- -- 100
2019-04-03 22:00:00 3.4 6 Sur 25 Norte 0.4 -- -- 100
2019-04-03 21:00:00 3.4 5 Sur 10 Sur 0.4 -- -- 100
2019-04-03 20:00:00 3.6 2 Noroeste 29 Nordeste 3.2 -- -- 98
2019-04-03 19:00:00 4 12 Nordeste 28 Noroeste 1.4 -- -- 96
2019-04-03 18:00:00 4.2 12 Norte 38 Norte 1.2 -- -- 93
2019-04-03 17:00:00 6.2 13 Sur 36 Noroeste 0 -- -- 86
2019-04-03 16:00:00 6.8 19 Nordeste 39 Nordeste 0 -- -- 75
2019-04-03 15:00:00 8 14 Nordeste 31 Norte 0 -- -- 76
2019-04-03 14:00:00 7.1 5 Sur 22 Nordeste 1.6 -- -- 94
2019-04-03 13:00:00 5.4 10 Nordeste 21 Nordeste 0.6 -- -- 92
2019-04-03 12:00:00 5.7 10 Sur 21 Sudeste 0 -- -- 95
2019-04-03 11:00:00 4.8 8 Sudeste 20 Nordeste 1.2 -- -- 96
2019-04-03 10:00:00 4.8 4 Este 21 Nordeste 0.6 -- -- 94
2019-04-03 09:00:00 4.8 6 Sudeste 19 Sudeste 0 -- -- 96
2019-04-03 08:00:00 4.5 5 Sur 15 Sur 0.2 -- -- 98
2019-04-03 07:00:00 5 7 Sudeste 14 Sudeste 0.4 -- -- 98
2019-04-03 06:00:00 5.3 4 Este 10 Nordeste 0.2 -- -- 98
2019-04-03 05:00:00 5.6 4 Sudeste 15 Este 0 -- -- 97
2019-04-03 04:00:00 5.5 6 Sur 14 Sur 0.4 -- -- 99
2019-04-03 03:00:00 5.9 5 Sur 10 Sur 0.4 -- -- 99
2019-04-03 02:00:00 6.2 4 Sur 13 Sudeste 0 -- -- 97
2019-04-03 01:00:00 6.3 3 Sur 6 Sudeste 0 -- -- 97
2019-04-03 00:00:00 7 3 Sur 8 Sur 0 -- -- 94
2019-04-02 23:00:00 7.2 2 Sudeste 10 Norte 0.2 -- -- 94
2019-04-02 22:00:00 7.5 9 Norte 21 Nordeste 0 -- -- 92
2019-04-02 21:00:00 8 8 Norte 20 Norte 0 -- -- 92
2019-04-02 20:00:00 8.3 14 Norte 22 Nordeste 0 -- -- 93
2019-04-02 19:00:00 8.6 14 Norte 20 Nordeste 0 -- -- 88
2019-04-02 18:00:00 8.8 10 Norte 24 Nordeste 0 -- -- 94
2019-04-02 17:00:00 8.8 13 Norte 19 Nordeste 0 -- -- 94
2019-04-02 16:00:00 9.2 12 Norte 22 Norte 0 -- -- 92
2019-04-02 15:00:00 10.3 8 Norte 18 Norte 0 -- -- 88
2019-04-02 14:00:00 10.6 12 Norte 20 Norte 0 -- -- 85
2019-04-02 13:00:00 11.5 5 Norte 14 Sur 0 -- -- 80
2019-04-02 12:00:00 10.1 7 Sur 12 Sur 0 -- -- 89
2019-04-02 11:00:00 9.3 5 Sur 8 Sur 0 -- -- 97
2019-04-02 10:00:00 8.9 0 Calma 6 Norte 0 -- -- 99
2019-04-02 09:00:00 8.7 3 Norte 12 Norte 0 -- -- 100
2019-04-02 08:00:00 8.8 6 Norte 16 Nordeste 0 -- -- 100
2019-04-02 07:00:00 8.9 10 Norte 15 Norte 0 -- -- 100
2019-04-02 06:00:00 9.1 8 Norte 9 Norte 0 -- -- 100
2019-04-02 05:00:00 8.6 0 Calma 2 Este 0 -- -- 100
2019-04-02 04:00:00 8.8 0 Calma 4 Nordeste 0 -- -- 100
2019-04-02 03:00:00 8.6 0 Calma 8 Nordeste 0 -- -- 100
2019-04-02 02:00:00 7.8 0 Calma 7 Norte 0 -- -- 100
2019-04-02 01:00:00 8.8 0 Calma 4 Norte 0 -- -- 100
2019-04-02 00:00:00 9.2 3 Norte 5 Norte 0 -- -- 100
2019-04-01 23:00:00 9.6 3 Norte 11 Norte 0 -- -- 100
2019-04-01 22:00:00 10.4 5 Norte 13 Norte 0 -- -- 100
2019-04-01 21:00:00 10.7 8 Norte 14 Norte 0 -- -- 99
2019-04-01 20:00:00 11.3 10 Norte 21 Norte 0 -- -- 98
2019-04-01 19:00:00 11.8 19 Norte 30 Norte 0 -- -- 96
2019-04-01 18:00:00 13.2 22 Norte 31 Norte 0 -- -- 90
2019-04-01 17:00:00 14 24 Norte 29 Norte 0 -- -- 82
2019-04-01 16:00:00 14.6 21 Norte 26 Norte 0 -- -- 79
2019-04-01 15:00:00 14.6 18 Norte 24 Norte 0 -- -- 78
2019-04-01 14:00:00 14.1 18 Norte 23 Norte 0 -- -- 85
2019-04-01 13:00:00 13.9 12 Norte 16 Norte 0 -- -- 83
2019-04-01 12:00:00 12.6 9 Norte 12 Norte 0 -- -- 87
2019-04-01 11:00:00 10.8 5 Norte 8 Norte 0 -- -- 97
2019-04-01 10:00:00 6.9 5 Sur 10 Sur 0 -- -- 100
2019-04-01 09:00:00 5.9 6 Sur 9 Sur 0 -- -- 100
2019-04-01 08:00:00 6.3 2 Sur 8 Sur 0 -- -- 100
2019-04-01 07:00:00 7.3 5 Sur 8 Sur 0 -- -- 100
2019-04-01 06:00:00 8.3 3 Sur 7 Norte 0 -- -- 100
2019-04-01 05:00:00 7.9 3 Norte 5 Norte 0 -- -- 100
2019-04-01 04:00:00 8.4 0 Calma 3 Sudeste 0 -- -- 100
2019-04-01 03:00:00 7.9 0 Calma 5 Este 0 -- -- 100
2019-04-01 02:00:00 8.3 0 Calma 7 Norte 0 -- -- 100
2019-04-01 01:00:00 9.2 3 Norte 6 Nordeste 0 -- -- 100
2019-04-01 00:00:00 10.2 0 Calma 2 Nordeste 0 -- -- 100
2019-03-31 23:00:00 10.3 0 Calma 8 Norte 0 -- -- 100
2019-03-31 22:00:00 10.4 5 Norte 13 Norte 0 -- -- 100
2019-03-31 21:00:00 10.6 10 Norte 15 Norte 0 -- -- 100
2019-03-31 20:00:00 11.2 11 Norte 22 Norte 0 -- -- 99
2019-03-31 19:00:00 11.4 13 Norte 17 Norte 0 -- -- 97
2019-03-31 18:00:00 11.6 13 Norte 20 Norte 0 -- -- 96
2019-03-31 17:00:00 12.3 18 Norte 29 Norte 0 -- -- 93
2019-03-31 16:00:00 13.5 19 Norte 28 Norte 0 -- -- 90
2019-03-31 15:00:00 13.4 21 Norte 26 Norte 0 -- -- 91
2019-03-31 14:00:00 14.2 17 Norte 22 Norte 0 -- -- 85
2019-03-31 13:00:00 13.7 10 Norte 13 Norte 0 -- -- 82
2019-03-31 12:00:00 11.6 4 Norte 8 Norte 0 -- -- 90
2019-03-31 11:00:00 10 4 Norte 6 Sur 0 -- -- 95
2019-03-31 10:00:00 7.4 6 Sur 8 Sur 0 -- -- 100
2019-03-31 09:00:00 6.6 5 Sur 8 Sur 0 -- -- 100
2019-03-31 08:00:00 5.7 5 Sur 7 Sur 0 -- -- 95
2019-03-31 07:00:00 6.7 4 Sur 4 Sur 0 -- -- 92
2019-03-31 06:00:00 6.5 2 Sur 5 Norte 0 -- -- 90
2019-03-31 05:00:00 8 2 Norte 8 Sur 0 -- -- 83
2019-03-31 03:00:00 8 4 Sur 8 Sur 0 -- -- 82
2019-03-31 01:00:00 8.5 0 Calma 9 Sur 0 -- -- 80
2019-03-31 00:00:00 8.6 5 Sur 11 Sur 0 -- -- 85
2019-03-30 23:00:00 7.6 7 Sur 10 Sur 0 -- -- 100
2019-03-30 22:00:00 8.5 3 Sur 5 Sur 0 -- -- 100
2019-03-30 21:00:00 9.4 5 Norte 7 Noroeste 0 -- -- 100
2019-03-30 20:00:00 9.7 3 Norte 8 Norte 0 -- -- 97
2019-03-30 19:00:00 11.1 8 Norte 12 Norte 0 -- -- 96
2019-03-30 18:00:00 11.3 3 Norte 14 Norte 0 -- -- 97
2019-03-30 17:00:00 11.7 15 Norte 22 Norte 0 -- -- 92
2019-03-30 16:00:00 13.1 14 Norte 22 Norte 0 -- -- 84
2019-03-30 15:00:00 15.2 19 Norte 23 Norte 0 -- -- 70
2019-03-30 14:00:00 15.8 17 Norte 22 Norte 0 -- -- 65
2019-03-30 13:00:00 16.4 14 Norte 18 Norte 0 -- -- 71
2019-03-30 12:00:00 15.6 7 Norte 11 Norte 0 -- -- 73
2019-03-30 11:00:00 14.6 6 Norte 10 Sur 0 -- -- 73
2019-03-30 10:00:00 13 8 Sur 14 Sur 0 -- -- 70
2019-03-30 09:00:00 10.2 9 Sur 14 Sur 0 -- -- 74
2019-03-30 08:00:00 8.6 8 Sudoeste 17 Sur 0 -- -- 81
2019-03-30 07:00:00 8.2 5 Sudoeste 14 Sur 0 -- -- 81
2019-03-30 06:00:00 8.4 7 Sur 17 Sur 0 -- -- 82
2019-03-30 05:00:00 8.5 7 Sur 12 Sur 0 -- -- 82
2019-03-30 04:00:00 8.9 8 Sur 17 Sur 0 -- -- 81
2019-03-30 03:00:00 8.1 10 Sur 18 Sur 0 -- -- 87
2019-03-30 02:00:00 7.3 8 Sur 17 Sur 0 -- -- 97
2019-03-30 01:00:00 7.4 11 Sur 16 Sur 0 -- -- 100
2019-03-30 00:00:00 8.3 8 Sur 13 Sur 0 -- -- 100
2019-03-29 23:00:00 9.3 7 Sur 12 Sur 0 -- -- 100
2019-03-29 22:00:00 9.6 3 Sudoeste 8 Sur 0 -- -- 99
2019-03-29 21:00:00 9.9 3 Sur 6 Sudoeste 0 -- -- 99
2019-03-29 20:00:00 10.1 5 Norte 12 Norte 0 -- -- 99
2019-03-29 19:00:00 10.5 10 Norte 15 Norte 0 -- -- 95
2019-03-29 18:00:00 11.8 13 Norte 18 Norte 0 -- -- 87
2019-03-29 17:00:00 12.9 14 Norte 19 Norte 0 -- -- 86
2019-03-29 16:00:00 13.2 14 Norte 21 Norte 0 -- -- 86
2019-03-29 15:00:00 13.4 15 Norte 20 Norte 0 -- -- 85
2019-03-29 14:00:00 13.5 14 Norte 19 Norte 0 -- -- 82
2019-03-29 13:00:00 13.3 10 Norte 17 Norte 0 -- -- 79
2019-03-29 12:00:00 12.6 6 Norte 12 Nordeste 0 -- -- 82
2019-03-29 11:00:00 10.8 5 Norte 9 Sur 0 -- -- 87
2019-03-29 10:00:00 8.2 6 Sur 12 Sur 0 -- -- 97
2019-03-29 09:00:00 5.7 10 Sur 15 Sur 0 -- -- 100
2019-03-29 08:00:00 5.3 8 Sur 14 Sur 0 -- -- 100
2019-03-29 07:00:00 5.6 6 Sur 17 Sur 0 -- -- 100
2019-03-29 06:00:00 6.3 7 Sur 14 Sur 0 -- -- 100
2019-03-29 05:00:00 6.5 7 Sur 17 Sur 0 -- -- 100
2019-03-29 04:00:00 6.7 7 Sur 14 Sur 0 -- -- 100
2019-03-29 03:00:00 6.9 8 Sur 14 Sur 0 -- -- 100
2019-03-29 02:00:00 7.1 9 Sur 13 Sur 0 -- -- 100
2019-03-29 01:00:00 7 9 Sur 12 Sur 0 -- -- 100
2019-03-29 00:00:00 6.2 4 Sur 7 Sudeste 0 -- -- 100
2019-03-28 23:00:00 6.6 2 Sur 5 Sudeste 0 -- -- 100
2019-03-28 22:00:00 6.4 7 Norte 12 Norte 0 -- -- 100
2019-03-28 21:00:00 7.1 6 Norte 14 Norte 0 -- -- 98
2019-03-28 20:00:00 7.8 8 Norte 13 Norte 0 -- -- 94
2019-03-28 19:00:00 9.7 9 Norte 19 Norte 0 -- -- 88
2019-03-28 18:00:00 12.2 12 Norte 33 Norte 0 -- -- 81
2019-03-28 17:00:00 14.2 21 Norte 36 Norte 0 -- -- 74
2019-03-28 16:00:00 14.4 22 Norte 32 Norte 0 -- -- 70
2019-03-28 15:00:00 14.5 18 Norte 39 Norte 0 -- -- 72
2019-03-28 14:00:00 14.3 27 Norte 39 Norte 0 -- -- 74
2019-03-28 13:00:00 14.2 18 Norte 28 Norte 0 -- -- 73
2019-03-28 12:00:00 12.7 10 Norte 15 Norte 0 -- -- 75
2019-03-28 11:00:00 10.3 8 Norte 10 Norte 0 -- -- 78
2019-03-28 10:00:00 7.3 5 Sur 8 Sur 0 -- -- 85
2019-03-28 09:00:00 4.7 3 Sur 5 Sudeste 0 -- -- 100
2019-03-28 08:00:00 3.1 2 Sur 5 Sur 0 -- -- 100
2019-03-28 07:00:00 3 5 Sur 6 Sur 0 -- -- 100
2019-03-28 06:00:00 3.2 3 Sur 5 Sur 0 -- -- 100
2019-03-28 05:00:00 3.7 2 Sur 5 Sur 0 -- -- 100
2019-03-28 04:00:00 3.9 2 Sur 4 Sur 0 -- -- 100
2019-03-28 03:00:00 4 3 Sur 5 Sur 0 -- -- 100
2019-03-28 02:00:00 4.4 0 Calma 5 Sur 0 -- -- 98
2019-03-28 01:00:00 4.9 3 Norte 6 Norte 0 -- -- 98
2019-03-28 00:00:00 5 5 Norte 8 Nordeste 0 -- -- 98
2019-03-27 23:00:00 5.5 5 Norte 8 Norte 0 -- -- 95
2019-03-27 22:00:00 5.8 4 Norte 7 Norte 0 -- -- 94
2019-03-27 21:00:00 6.5 3 Norte 5 Nordeste 0 -- -- 90
2019-03-27 20:00:00 8.4 2 Nordeste 23 Noroeste 0 -- -- 84
2019-03-27 19:00:00 10.9 19 Norte 32 Norte 0 -- -- 73
2019-03-27 18:00:00 12.7 20 Noroeste 37 Norte 0 -- -- 69
2019-03-27 17:00:00 13.5 24 Norte 37 Norte 0 -- -- 71
2019-03-27 16:00:00 14.2 25 Norte 41 Norte 0 -- -- 71
2019-03-27 15:00:00 14.1 28 Norte 42 Norte 0 -- -- 72
2019-03-27 14:00:00 14.2 30 Norte 40 Norte 0 -- -- 69
2019-03-27 13:00:00 14.5 22 Norte 29 Norte 0 -- -- 65
2019-03-27 12:00:00 13.1 18 Norte 23 Norte 0 -- -- 67
2019-03-27 11:00:00 11.2 9 Norte 14 Norte 0 -- -- 71
2019-03-27 10:00:00 9.2 4 Nordeste 10 Norte 0 -- -- 74
2019-03-27 09:00:00 4.2 4 Sur 8 Sur 0 -- -- 84
2019-03-27 08:00:00 2.8 4 Sur 9 Sur 0 -- -- 89
2019-03-27 07:00:00 3.1 4 Sur 12 Norte 0 -- -- 85
2019-03-27 06:00:00 3.6 6 Norte 8 Noroeste 0 -- -- 81
2019-03-27 05:00:00 3.2 5 Nordeste 16 Noroeste 0 -- -- 86
2019-03-27 04:00:00 3.5 5 Norte 11 Nordeste 0 -- -- 86
2019-03-27 03:00:00 2.9 0 Calma 5 Norte 0 -- -- 95
2019-03-27 02:00:00 3.4 0 Calma 5 Sur 0 -- -- 96
2019-03-27 01:00:00 3.7 0 Calma 3 Nordeste 0 -- -- 93
2019-03-27 00:00:00 4 2 Sudoeste 6 Sur 0 -- -- 96
2019-03-26 23:00:00 4.6 3 Sur 6 Sur 0 -- -- 94
2019-03-26 22:00:00 5.4 3 Sur 5 Norte 0 -- -- 93
2019-03-26 21:00:00 6.4 2 Sudeste 10 Norte 0 -- -- 88
2019-03-26 20:00:00 7.7 10 Norte 26 Norte 0 -- -- 83
2019-03-26 19:00:00 8.9 21 Norte 37 Norte 0 -- -- 79
2019-03-26 18:00:00 10.9 25 Norte 41 Norte 0 -- -- 72
2019-03-26 17:00:00 12.2 26 Norte 44 Norte 0 -- -- 68
2019-03-26 16:00:00 12.7 32 Norte 49 Norte 0 -- -- 67
2019-03-26 15:00:00 13.1 34 Norte 44 Norte 0 -- -- 66
2019-03-26 14:00:00 13.5 26 Norte 44 Norte 0 -- -- 66
2019-03-26 13:00:00 13 30 Norte 50 Norte 0 -- -- 64
2019-03-26 12:00:00 13.4 19 Norte 48 Norte 0 -- -- 51
2019-03-26 11:00:00 11.5 22 Norte 37 Norte 0 -- -- 62
2019-03-26 10:00:00 10.1 18 Norte 33 Norte 0 -- -- 70
2019-03-26 09:00:00 8.2 19 Norte 35 Norte 0 -- -- 76
2019-03-26 08:00:00 6.3 10 Norte 24 Norte 0 -- -- 84
2019-03-26 07:00:00 6.4 15 Norte 23 Norte 0 -- -- 84
2019-03-26 06:00:00 6.8 11 Norte 28 Norte 0 -- -- 79
2019-03-26 05:00:00 7.2 18 Norte 36 Norte 0 -- -- 78
2019-03-26 04:00:00 7 22 Norte 32 Norte 0 -- -- 80
2019-03-26 03:00:00 6.2 15 Noroeste 25 Norte 0 -- -- 89
2019-03-26 02:00:00 5.3 14 Norte 23 Norte 0 -- -- 97
2019-03-26 01:00:00 5.8 10 Norte 24 Norte 0 -- -- 94
2019-03-26 00:00:00 6.4 15 Norte 24 Norte 0 -- -- 92
2019-03-25 23:00:00 7.2 15 Noroeste 22 Noroeste 0 -- -- 91
2019-03-25 22:00:00 7.1 12 Norte 29 Norte 0 -- -- 92
2019-03-25 21:00:00 7.8 20 Norte 30 Norte 0 -- -- 94
2019-03-25 20:00:00 8.5 22 Norte 35 Norte 0 -- -- 93
2019-03-25 19:00:00 9.3 21 Norte 40 Norte 0 -- -- 91
2019-03-25 18:00:00 11 30 Norte 45 Norte 0 -- -- 85
2019-03-25 17:00:00 12 28 Norte 46 Norte 0 -- -- 84
2019-03-25 16:00:00 12.3 30 Norte 56 Noroeste 0 -- -- 83
2019-03-25 15:00:00 12 39 Norte 55 Norte 0 -- -- 83
2019-03-25 14:00:00 13.6 30 Norte 45 Norte 0 -- -- 80
2019-03-25 13:00:00 13.1 27 Norte 41 Norte 0 -- -- 82
2019-03-25 12:00:00 12.3 27 Norte 38 Norte 0 -- -- 83
2019-03-25 11:00:00 11.2 24 Norte 36 Norte 0 -- -- 88
2019-03-25 10:00:00 9.8 22 Norte 30 Norte 0 -- -- 93
2019-03-25 09:00:00 8.8 18 Norte 28 Norte 0 -- -- 99
2019-03-25 08:00:00 7.4 14 Norte 19 Norte 0 -- -- 100
2019-03-25 07:00:00 6.7 10 Norte 14 Norte 0 -- -- 100
2019-03-25 06:00:00 7.5 11 Norte 26 Norte 0 -- -- 100
2019-03-25 05:00:00 8.2 20 Norte 29 Norte 0 -- -- 100
2019-03-25 04:00:00 7.5 14 Norte 20 Norte 0 -- -- 100
2019-03-25 03:00:00 7.5 11 Norte 14 Norte 0 -- -- 100
2019-03-25 02:00:00 7.7 9 Norte 11 Norte 0 -- -- 100
2019-03-25 01:00:00 7.4 4 Norte 12 Norte 0 -- -- 100
2019-03-25 00:00:00 8.1 8 Norte 13 Norte 0 -- -- 100
2019-03-24 23:00:00 7.4 9 Norte 14 Norte 0 -- -- 100
2019-03-24 22:00:00 8.7 12 Norte 18 Norte 0 -- -- 100
2019-03-24 21:00:00 8.1 13 Norte 22 Norte 0 -- -- 100
2019-03-24 20:00:00 9.1 17 Norte 29 Norte 0 -- -- 99
2019-03-24 19:00:00 10.3 22 Norte 38 Norte 0 -- -- 94
2019-03-24 18:00:00 11.6 32 Norte 41 Norte 0 -- -- 92
2019-03-24 17:00:00 13 28 Norte 40 Norte 0 -- -- 88
2019-03-24 16:00:00 13.7 21 Norte 37 Norte 0 -- -- 89
2019-03-24 15:00:00 12.3 29 Norte 36 Norte 0 -- -- 93
2019-03-24 14:00:00 13.6 22 Norte 31 Norte 0 -- -- 90
2019-03-24 13:00:00 12.6 20 Norte 28 Norte 0 -- -- 93
2019-03-24 12:00:00 12.3 17 Norte 22 Norte 0 -- -- 89
2019-03-24 11:00:00 9.9 8 Norte 17 Norte 0 -- -- 94
2019-03-24 10:00:00 9.2 10 Norte 15 Norte 0 -- -- 99
2019-03-24 09:00:00 7.9 4 Norte 8 Norte 0 -- -- 100
2019-03-24 08:00:00 7.2 2 Sur 3 Sur 0 -- -- 100
2019-03-24 07:00:00 7.3 0 Calma 6 Sur 0 -- -- 100
2019-03-24 06:00:00 7.4 2 Sur 5 Sur 0 -- -- 100
2019-03-24 05:00:00 6.9 0 Calma 3 Sur 0 -- -- 100
2019-03-24 04:00:00 7.8 0 Calma 7 Sur 0 -- -- 98
2019-03-24 03:00:00 8.6 3 Sudeste 12 Nordeste 0 -- -- 99
2019-03-24 02:00:00 8.9 3 Norte 6 Nordeste 0 -- -- 100
2019-03-24 01:00:00 8.9 2 Nordeste 8 Noroeste 0 -- -- 99
2019-03-24 00:00:00 9.2 4 Noroeste 6 Oeste 0 -- -- 98
2019-03-23 23:00:00 9.9 0 Calma 9 Noroeste 0 -- -- 98
2019-03-23 22:00:00 9.9 6 Norte 10 Norte 0 -- -- 99
2019-03-23 21:00:00 9.6 4 Norte 5 Norte 0 -- -- 98
2019-03-23 20:00:00 10.5 4 Norte 8 Norte 0 -- -- 92
2019-03-23 19:00:00 12.5 5 Norte 13 Norte 0 -- -- 84
2019-03-23 18:00:00 14.9 11 Norte 19 Norte 0 -- -- 78
2019-03-23 17:00:00 16.9 17 Norte 20 Norte 0 -- -- 72
2019-03-23 16:00:00 17.4 13 Norte 18 Norte 0 -- -- 67
2019-03-23 15:00:00 16.9 14 Norte 19 Norte 0 -- -- 66
2019-03-23 14:00:00 17.4 14 Norte 18 Norte 0 -- -- 64
2019-03-23 13:00:00 17.1 12 Norte 15 Norte 0 -- -- 60
2019-03-23 12:00:00 17.1 3 Sur 8 Sur 0 -- -- 57
2019-03-23 11:00:00 14.8 2 Norte 5 Sudeste 0 -- -- 58
2019-03-23 10:00:00 11.8 2 Sur 7 Sur 0 -- -- 68
2019-03-23 09:00:00 7.8 5 Sur 10 Sur 0 -- -- 78
2019-03-23 08:00:00 6.6 3 Sur 8 Sur 0 -- -- 81
2019-03-23 07:00:00 6.3 6 Sur 12 Sur 0 -- -- 83
2019-03-23 06:00:00 6.1 7 Sur 11 Sur 0 -- -- 81
2019-03-23 05:00:00 6.5 6 Sur 11 Sur 0 -- -- 79
2019-03-23 04:00:00 6.7 7 Sur 13 Sur 0 -- -- 78
2019-03-23 03:00:00 7 6 Sur 12 Sudoeste 0 -- -- 78
2019-03-23 02:00:00 7.2 6 Sur 9 Sur 0 -- -- 77
2019-03-23 01:00:00 6.8 6 Sur 7 Sur 0 -- -- 81
2019-03-23 00:00:00 7.4 3 Sur 6 Sur 0 -- -- 81
2019-03-22 23:00:00 7.9 2 Norte 5 Sur 0 -- -- 76
2019-03-22 22:00:00 8.2 0 Calma 4 Nordeste 0 -- -- 78
2019-03-22 21:00:00 8 3 Sur 6 Noroeste 0 -- -- 81
2019-03-22 20:00:00 8.2 5 Norte 14 Norte 0 -- -- 82
2019-03-22 19:00:00 9.3 12 Norte 21 Norte 0 -- -- 79
2019-03-22 18:00:00 11.7 18 Norte 27 Norte 0 -- -- 71
2019-03-22 17:00:00 13 21 Norte 27 Norte 0 -- -- 67
2019-03-22 16:00:00 13.6 22 Norte 28 Norte 0 -- -- 66
2019-03-22 15:00:00 14.4 22 Norte 28 Norte 0 -- -- 64
2019-03-22 14:00:00 18.2 17 Sur 31 Sur 0 -- -- 40
2019-03-22 13:00:00 17.7 14 Sur 27 Sur 0 -- -- 48
2019-03-22 12:00:00 16.6 17 Sur 28 Sur 0 -- -- 48
2019-03-22 11:00:00 14.4 7 Sur 13 Sur 0 -- -- 65
2019-03-22 10:00:00 12.2 7 Sur 13 Sur 0 -- -- 67
2019-03-22 09:00:00 7 9 Sur 14 Sur 0 -- -- 83
2019-03-22 08:00:00 5.6 8 Sur 13 Sur 0 -- -- 89
2019-03-22 07:00:00 5.6 9 Sur 13 Sudoeste 0 -- -- 93
2019-03-22 06:00:00 5.4 6 Sur 15 Sur 0 -- -- 98
2019-03-22 05:00:00 5.1 8 Sur 15 Sur 0 -- -- 100
2019-03-22 04:00:00 5.2 8 Sur 12 Sur 0 -- -- 100
2019-03-22 03:00:00 5 6 Sudoeste 11 Sur 0 -- -- 100
2019-03-22 02:00:00 5 4 Sur 6 Sudoeste 0 -- -- 100
2019-03-22 01:00:00 5.4 3 Sur 8 Sur 0 -- -- 100
2019-03-22 00:00:00 4.9 5 Sur 9 Sur 0 -- -- 100
2019-03-21 23:00:00 5.3 7 Sur 9 Sur 0 -- -- 99
2019-03-21 22:00:00 5.6 5 Sur 8 Sur 0 -- -- 97
2019-03-21 21:00:00 6.8 4 Sur 7 Sur 0 -- -- 94
2019-03-21 20:00:00 8.3 5 Sudeste 9 Norte 0 -- -- 88
2019-03-21 19:00:00 9.6 8 Norte 19 Norte 0 -- -- 84
2019-03-21 18:00:00 11.9 16 Norte 26 Norte 0 -- -- 77
2019-03-21 17:00:00 12.9 21 Norte 33 Norte 0 -- -- 75
2019-03-21 16:00:00 13.1 22 Norte 38 Norte 0 -- -- 75
2019-03-21 15:00:00 13.1 26 Norte 37 Norte 0 -- -- 76
2019-03-21 14:00:00 13 23 Norte 32 Norte 0 -- -- 73
2019-03-21 13:00:00 12.6 18 Norte 27 Norte 0 -- -- 74
2019-03-21 12:00:00 11.2 11 Norte 15 Norte 0 -- -- 70
2019-03-21 11:00:00 9.3 8 Norte 10 Norte 0 -- -- 71
2019-03-21 10:00:00 6.9 4 Sur 9 Sur 0 -- -- 81
2019-03-21 09:00:00 2.6 7 Sur 9 Sur 0 -- -- 97
2019-03-21 08:00:00 2 5 Sur 8 Sur 0 -- -- 99
2019-03-21 07:00:00 2.7 4 Sur 6 Sur 0 -- -- 98
2019-03-21 06:00:00 2.9 3 Norte 6 Norte 0 -- -- 95
2019-03-21 05:00:00 3 0 Calma 8 Norte 0 -- -- 97
2019-03-21 04:00:00 3.3 6 Norte 8 Noroeste 0 -- -- 99
2019-03-21 03:00:00 3.8 0 Calma 6 Noroeste -- -- -- 100
2019-03-21 02:00:00 3.7 3 Norte 7 Norte 0 -- -- 100
2019-03-21 01:00:00 4.1 3 Norte 6 Norte 0 -- -- 100
2019-03-21 00:00:00 4.5 4 Norte 7 Norte 0 -- -- 99